sensor_id;sensor_type;location;lat;lon;timestamp;P1;durP1;ratioP1;P2;durP2;ratioP2
19836;SDS011;10079;55.740;37.662;2022-07-10T00:02:17;6.80;;;6.10;;
19836;SDS011;10079;55.740;37.662;2022-07-10T00:05:10;7.37;;;5.93;;
19836;SDS011;10079;55.740;37.662;2022-07-10T00:08:00;5.93;;;5.33;;
19836;SDS011;10079;55.740;37.662;2022-07-10T00:10:49;5.90;;;5.30;;
19836;SDS011;10079;55.740;37.662;2022-07-10T00:13:42;7.43;;;5.80;;
19836;SDS011;10079;55.740;37.662;2022-07-10T00:16:22;6.30;;;5.57;;
19836;SDS011;10079;55.740;37.662;2022-07-10T00:19:03;7.27;;;5.83;;
19836;SDS011;10079;55.740;37.662;2022-07-10T00:21:45;7.33;;;5.40;;
19836;SDS011;10079;55.740;37.662;2022-07-10T00:24:29;6.67;;;6.07;;
19836;SDS011;10079;55.740;37.662;2022-07-10T00:27:13;5.57;;;5.03;;
19836;SDS011;10079;55.740;37.662;2022-07-10T00:29:57;7.23;;;6.20;;
19836;SDS011;10079;55.740;37.662;2022-07-10T00:32:38;8.23;;;5.90;;
19836;SDS011;10079;55.740;37.662;2022-07-10T00:35:31;6.63;;;5.13;;
19836;SDS011;10079;55.740;37.662;2022-07-10T00:38:24;5.17;;;4.67;;
19836;SDS011;10079;55.740;37.662;2022-07-10T00:41:13;5.63;;;4.87;;
19836;SDS011;10079;55.740;37.662;2022-07-10T00:44:03;6.30;;;5.17;;
19836;SDS011;10079;55.740;37.662;2022-07-10T00:46:48;6.87;;;5.70;;
19836;SDS011;10079;55.740;37.662;2022-07-10T00:49:28;10.80;;;5.60;;
19836;SDS011;10079;55.740;37.662;2022-07-10T00:52:10;6.57;;;5.83;;
19836;SDS011;10079;55.740;37.662;2022-07-10T00:54:54;7.30;;;6.57;;
19836;SDS011;10079;55.740;37.662;2022-07-10T00:57:47;8.67;;;6.53;;
19836;SDS011;10079;55.740;37.662;2022-07-10T01:00:31;9.70;;;6.27;;
19836;SDS011;10079;55.740;37.662;2022-07-10T01:03:12;8.70;;;6.47;;
19836;SDS011;10079;55.740;37.662;2022-07-10T01:05:53;7.53;;;6.80;;
19836;SDS011;10079;55.740;37.662;2022-07-10T01:08:37;7.20;;;6.50;;
19836;SDS011;10079;55.740;37.662;2022-07-10T01:11:27;7.57;;;6.83;;
19836;SDS011;10079;55.740;37.662;2022-07-10T01:14:11;9.80;;;6.83;;
19836;SDS011;10079;55.740;37.662;2022-07-10T01:16:52;6.70;;;5.53;;
19836;SDS011;10079;55.740;37.662;2022-07-10T01:19:33;7.43;;;6.37;;
19836;SDS011;10079;55.740;37.662;2022-07-10T01:22:14;6.50;;;5.73;;
19836;SDS011;10079;55.740;37.662;2022-07-10T01:24:55;6.73;;;5.77;;
19836;SDS011;10079;55.740;37.662;2022-07-10T01:27:36;7.67;;;6.43;;
19836;SDS011;10079;55.740;37.662;2022-07-10T01:30:17;6.80;;;6.07;;
19836;SDS011;10079;55.740;37.662;2022-07-10T01:32:58;6.17;;;5.50;;
19836;SDS011;10079;55.740;37.662;2022-07-10T01:35:39;6.97;;;5.27;;
19836;SDS011;10079;55.740;37.662;2022-07-10T01:38:24;7.20;;;5.77;;
19836;SDS011;10079;55.740;37.662;2022-07-10T01:41:04;6.77;;;5.40;;
19836;SDS011;10079;55.740;37.662;2022-07-10T01:43:49;8.77;;;6.63;;
19836;SDS011;10079;55.740;37.662;2022-07-10T01:46:29;7.43;;;5.80;;
19836;SDS011;10079;55.740;37.662;2022-07-10T01:49:14;9.07;;;6.40;;
19836;SDS011;10079;55.740;37.662;2022-07-10T01:51:58;8.97;;;6.63;;
19836;SDS011;10079;55.740;37.662;2022-07-10T01:54:39;7.87;;;7.00;;
19836;SDS011;10079;55.740;37.662;2022-07-10T01:57:29;9.00;;;6.60;;
19836;SDS011;10079;55.740;37.662;2022-07-10T02:00:22;7.27;;;6.57;;
19836;SDS011;10079;55.740;37.662;2022-07-10T02:03:03;7.80;;;6.33;;
19836;SDS011;10079;55.740;37.662;2022-07-10T02:05:56;10.70;;;8.00;;
19836;SDS011;10079;55.740;37.662;2022-07-10T02:08:40;8.23;;;6.73;;
19836;SDS011;10079;55.740;37.662;2022-07-10T02:11:24;7.07;;;6.20;;
19836;SDS011;10079;55.740;37.662;2022-07-10T02:14:09;7.93;;;5.37;;
19836;SDS011;10079;55.740;37.662;2022-07-10T02:16:50;7.70;;;6.60;;
19836;SDS011;10079;55.740;37.662;2022-07-10T02:19:34;9.73;;;6.90;;
19836;SDS011;10079;55.740;37.662;2022-07-10T02:22:15;9.33;;;7.00;;
19836;SDS011;10079;55.740;37.662;2022-07-10T02:24:57;7.83;;;6.87;;
19836;SDS011;10079;55.740;37.662;2022-07-10T02:27:38;9.10;;;6.23;;
19836;SDS011;10079;55.740;37.662;2022-07-10T02:30:27;9.70;;;7.70;;
19836;SDS011;10079;55.740;37.662;2022-07-10T02:33:09;12.97;;;7.27;;
19836;SDS011;10079;55.740;37.662;2022-07-10T02:35:53;11.07;;;7.60;;
19836;SDS011;10079;55.740;37.662;2022-07-10T02:38:34;9.50;;;7.37;;
19836;SDS011;10079;55.740;37.662;2022-07-10T02:41:15;8.40;;;6.87;;
19836;SDS011;10079;55.740;37.662;2022-07-10T02:43:57;10.20;;;7.20;;
19836;SDS011;10079;55.740;37.662;2022-07-10T02:46:41;7.97;;;6.83;;
19836;SDS011;10079;55.740;37.662;2022-07-10T02:49:22;9.63;;;7.10;;
19836;SDS011;10079;55.740;37.662;2022-07-10T02:55:24;7.00;;;6.30;;
19836;SDS011;10079;55.740;37.662;2022-07-10T02:58:17;10.90;;;6.90;;
19836;SDS011;10079;55.740;37.662;2022-07-10T03:32:50;12.73;;;8.27;;
19836;SDS011;10079;55.740;37.662;2022-07-10T03:35:32;9.23;;;6.90;;
19836;SDS011;10079;55.740;37.662;2022-07-10T03:38:24;9.40;;;7.30;;
19836;SDS011;10079;55.740;37.662;2022-07-10T03:41:06;8.40;;;7.20;;
19836;SDS011;10079;55.740;37.662;2022-07-10T03:43:58;12.17;;;7.77;;
19836;SDS011;10079;55.740;37.662;2022-07-10T03:46:42;12.27;;;7.63;;
19836;SDS011;10079;55.740;37.662;2022-07-10T03:49:27;8.93;;;7.37;;
19836;SDS011;10079;55.740;37.662;2022-07-10T03:52:19;10.93;;;8.57;;
19836;SDS011;10079;55.740;37.662;2022-07-10T03:55:01;8.50;;;7.10;;
19836;SDS011;10079;55.740;37.662;2022-07-10T04:08:27;12.57;;;8.73;;
19836;SDS011;10079;55.740;37.662;2022-07-10T04:11:11;11.67;;;9.07;;
19836;SDS011;10079;55.740;37.662;2022-07-10T04:14:01;11.57;;;8.17;;
19836;SDS011;10079;55.740;37.662;2022-07-10T04:16:45;8.53;;;7.17;;
19836;SDS011;10079;55.740;37.662;2022-07-10T04:19:26;11.57;;;7.47;;
19836;SDS011;10079;55.740;37.662;2022-07-10T04:22:10;10.47;;;6.70;;
19836;SDS011;10079;55.740;37.662;2022-07-10T04:24:51;9.90;;;6.63;;
19836;SDS011;10079;55.740;37.662;2022-07-10T04:27:33;13.33;;;7.60;;
19836;SDS011;10079;55.740;37.662;2022-07-10T04:30:14;7.83;;;7.03;;
19836;SDS011;10079;55.740;37.662;2022-07-10T04:33:04;8.93;;;6.37;;
19836;SDS011;10079;55.740;37.662;2022-07-10T04:35:48;9.37;;;6.80;;
19836;SDS011;10079;55.740;37.662;2022-07-10T04:38:29;11.17;;;6.77;;
19836;SDS011;10079;55.740;37.662;2022-07-10T04:41:22;8.10;;;6.30;;
19836;SDS011;10079;55.740;37.662;2022-07-10T04:44:03;9.80;;;6.50;;
19836;SDS011;10079;55.740;37.662;2022-07-10T04:46:48;8.07;;;6.07;;
19836;SDS011;10079;55.740;37.662;2022-07-10T04:49:29;6.93;;;6.23;;
19836;SDS011;10079;55.740;37.662;2022-07-10T04:52:18;6.53;;;5.07;;
19836;SDS011;10079;55.740;37.662;2022-07-10T04:55:11;5.30;;;4.50;;
19836;SDS011;10079;55.740;37.662;2022-07-10T04:57:52;8.80;;;6.82;;
19836;SDS011;10079;55.740;37.662;2022-07-10T05:00:45;7.82;;;6.40;;
19836;SDS011;10079;55.740;37.662;2022-07-10T05:03:27;7.72;;;5.70;;
19836;SDS011;10079;55.740;37.662;2022-07-10T05:06:12;8.35;;;6.62;;
19836;SDS011;10079;55.740;37.662;2022-07-10T05:08:53;10.25;;;7.20;;
19836;SDS011;10079;55.740;37.662;2022-07-10T05:11:37;8.70;;;6.55;;
19836;SDS011;10079;55.740;37.662;2022-07-10T05:14:19;8.20;;;6.47;;
19836;SDS011;10079;55.740;37.662;2022-07-10T05:17:00;9.75;;;7.07;;
19836;SDS011;10079;55.740;37.662;2022-07-10T05:19:41;14.57;;;7.20;;
19836;SDS011;10079;55.740;37.662;2022-07-10T05:22:22;9.75;;;7.97;;
19836;SDS011;10079;55.740;37.662;2022-07-10T05:25:07;10.18;;;6.80;;
19836;SDS011;10079;55.740;37.662;2022-07-10T05:27:48;7.43;;;6.65;;
19836;SDS011;10079;55.740;37.662;2022-07-10T05:30:29;10.40;;;7.68;;
19836;SDS011;10079;55.740;37.662;2022-07-10T05:33:13;10.30;;;7.57;;
19836;SDS011;10079;55.740;37.662;2022-07-10T05:35:55;8.38;;;6.25;;
19836;SDS011;10079;55.740;37.662;2022-07-10T05:38:36;7.05;;;5.93;;
19836;SDS011;10079;55.740;37.662;2022-07-10T05:41:17;8.98;;;8.07;;
19836;SDS011;10079;55.740;37.662;2022-07-10T05:43:58;11.43;;;7.60;;
19836;SDS011;10079;55.740;37.662;2022-07-10T05:46:39;10.00;;;8.85;;
19836;SDS011;10079;55.740;37.662;2022-07-10T05:49:21;9.57;;;8.45;;
19836;SDS011;10079;55.740;37.662;2022-07-10T05:52:05;10.15;;;9.10;;
19836;SDS011;10079;55.740;37.662;2022-07-10T06:07:16;10.52;;;9.45;;
19836;SDS011;10079;55.740;37.662;2022-07-10T06:10:08;10.75;;;9.65;;
19836;SDS011;10079;55.740;37.662;2022-07-10T06:23:35;11.40;;;10.40;;
19836;SDS011;10079;55.740;37.662;2022-07-10T06:26:16;11.40;;;10.00;;
19836;SDS011;10079;55.740;37.662;2022-07-10T06:28:57;11.98;;;9.88;;
19836;SDS011;10079;55.740;37.662;2022-07-10T06:31:50;10.43;;;9.32;;
19836;SDS011;10079;55.740;37.662;2022-07-10T06:34:44;10.82;;;9.70;;
19836;SDS011;10079;55.740;37.662;2022-07-10T06:37:28;10.13;;;9.05;;
19836;SDS011;10079;55.740;37.662;2022-07-10T06:40:12;11.25;;;10.10;;
19836;SDS011;10079;55.740;37.662;2022-07-10T06:43:05;10.77;;;9.75;;
19836;SDS011;10079;55.740;37.662;2022-07-10T06:45:49;11.23;;;10.20;;
19836;SDS011;10079;55.740;37.662;2022-07-10T06:48:30;11.07;;;9.98;;
19836;SDS011;10079;55.740;37.662;2022-07-10T06:51:14;10.13;;;9.10;;
19836;SDS011;10079;55.740;37.662;2022-07-10T06:54:05;10.35;;;9.20;;
19836;SDS011;10079;55.740;37.662;2022-07-10T06:56:46;11.32;;;9.25;;
19836;SDS011;10079;55.740;37.662;2022-07-10T06:59:31;8.73;;;7.93;;
19836;SDS011;10079;55.740;37.662;2022-07-10T07:02:12;9.05;;;8.07;;
19836;SDS011;10079;55.740;37.662;2022-07-10T07:05:05;9.38;;;8.52;;
19836;SDS011;10079;55.740;37.662;2022-07-10T07:07:50;10.85;;;8.60;;
19836;SDS011;10079;55.740;37.662;2022-07-10T07:10:43;10.10;;;9.10;;
19836;SDS011;10079;55.740;37.662;2022-07-10T07:13:24;10.32;;;9.18;;
19836;SDS011;10079;55.740;37.662;2022-07-10T07:16:17;11.10;;;9.40;;
19836;SDS011;10079;55.740;37.662;2022-07-10T07:18:58;9.43;;;8.45;;
19836;SDS011;10079;55.740;37.662;2022-07-10T07:21:43;12.70;;;8.70;;
19836;SDS011;10079;55.740;37.662;2022-07-10T07:24:27;9.93;;;8.35;;
19836;SDS011;10079;55.740;37.662;2022-07-10T07:27:11;9.65;;;8.65;;
19836;SDS011;10079;55.740;37.662;2022-07-10T07:29:55;9.60;;;8.77;;
19836;SDS011;10079;55.740;37.662;2022-07-10T07:32:39;9.35;;;8.48;;
19836;SDS011;10079;55.740;37.662;2022-07-10T07:35:21;9.93;;;8.75;;
19836;SDS011;10079;55.740;37.662;2022-07-10T07:38:02;9.25;;;8.45;;
19836;SDS011;10079;55.740;37.662;2022-07-10T07:40:46;9.50;;;8.55;;
19836;SDS011;10079;55.740;37.662;2022-07-10T07:43:27;10.30;;;9.45;;
19836;SDS011;10079;55.740;37.662;2022-07-10T07:46:08;9.73;;;8.82;;
19836;SDS011;10079;55.740;37.662;2022-07-10T07:48:53;10.10;;;9.23;;
19836;SDS011;10079;55.740;37.662;2022-07-10T08:02:05;9.98;;;9.07;;
19836;SDS011;10079;55.740;37.662;2022-07-10T08:04:46;9.88;;;9.00;;
19836;SDS011;10079;55.740;37.662;2022-07-10T08:07:41;9.43;;;8.60;;
19836;SDS011;10079;55.740;37.662;2022-07-10T08:10:23;9.65;;;8.75;;
19836;SDS011;10079;55.740;37.662;2022-07-10T08:13:13;9.18;;;8.30;;
19836;SDS011;10079;55.740;37.662;2022-07-10T08:15:57;8.85;;;8.00;;
19836;SDS011;10079;55.740;37.662;2022-07-10T08:18:41;7.95;;;7.35;;
19836;SDS011;10079;55.740;37.662;2022-07-10T08:21:25;8.18;;;7.47;;
19836;SDS011;10079;55.740;37.662;2022-07-10T08:24:09;8.15;;;7.47;;
19836;SDS011;10079;55.740;37.662;2022-07-10T08:26:51;8.20;;;7.45;;
19836;SDS011;10079;55.740;37.662;2022-07-10T08:29:32;7.53;;;6.93;;
19836;SDS011;10079;55.740;37.662;2022-07-10T08:32:23;7.70;;;6.72;;
19836;SDS011;10079;55.740;37.662;2022-07-10T08:35:05;10.68;;;7.43;;
19836;SDS011;10079;55.740;37.662;2022-07-10T08:37:47;7.65;;;6.95;;
19836;SDS011;10079;55.740;37.662;2022-07-10T08:40:33;6.55;;;6.05;;
19836;SDS011;10079;55.740;37.662;2022-07-10T08:43:10;6.30;;;5.80;;
19836;SDS011;10079;55.740;37.662;2022-07-10T08:45:54;6.68;;;6.07;;
19836;SDS011;10079;55.740;37.662;2022-07-10T08:48:35;6.93;;;6.37;;
19836;SDS011;10079;55.740;37.662;2022-07-10T08:51:19;6.60;;;5.97;;
19836;SDS011;10079;55.740;37.662;2022-07-10T08:54:01;6.12;;;5.62;;
19836;SDS011;10079;55.740;37.662;2022-07-10T08:56:45;7.37;;;5.97;;
19836;SDS011;10079;55.740;37.662;2022-07-10T08:59:29;7.05;;;6.35;;
19836;SDS011;10079;55.740;37.662;2022-07-10T09:02:10;6.28;;;5.78;;
19836;SDS011;10079;55.740;37.662;2022-07-10T09:04:52;7.32;;;6.43;;
19836;SDS011;10079;55.740;37.662;2022-07-10T09:07:36;9.15;;;7.10;;
19836;SDS011;10079;55.740;37.662;2022-07-10T09:21:07;10.80;;;6.37;;
19836;SDS011;10079;55.740;37.662;2022-07-10T09:23:48;6.70;;;6.03;;
19836;SDS011;10079;55.740;37.662;2022-07-10T09:26:33;6.80;;;5.40;;
19836;SDS011;10079;55.740;37.662;2022-07-10T09:29:26;6.10;;;5.18;;
19836;SDS011;10079;55.740;37.662;2022-07-10T09:32:24;6.62;;;5.32;;
19836;SDS011;10079;55.740;37.662;2022-07-10T09:35:08;6.97;;;5.30;;
19836;SDS011;10079;55.740;37.662;2022-07-10T09:38:01;5.87;;;5.20;;
19836;SDS011;10079;55.740;37.662;2022-07-10T09:40:42;5.87;;;5.15;;
19836;SDS011;10079;55.740;37.662;2022-07-10T09:43:26;6.53;;;5.28;;
19836;SDS011;10079;55.740;37.662;2022-07-10T09:46:26;5.70;;;5.03;;
19836;SDS011;10079;55.740;37.662;2022-07-10T09:49:16;5.62;;;5.03;;
19836;SDS011;10079;55.740;37.662;2022-07-10T09:51:57;5.68;;;5.03;;
19836;SDS011;10079;55.740;37.662;2022-07-10T09:54:41;6.20;;;5.03;;
19836;SDS011;10079;55.740;37.662;2022-07-10T09:57:26;5.30;;;4.90;;
19836;SDS011;10079;55.740;37.662;2022-07-10T10:00:18;6.28;;;5.40;;
19836;SDS011;10079;55.740;37.662;2022-07-10T10:03:04;5.82;;;5.07;;
19836;SDS011;10079;55.740;37.662;2022-07-10T10:06:01;5.43;;;4.93;;
19836;SDS011;10079;55.740;37.662;2022-07-10T10:08:46;5.75;;;5.20;;
19836;SDS011;10079;55.740;37.662;2022-07-10T10:11:39;6.15;;;4.70;;
19836;SDS011;10079;55.740;37.662;2022-07-10T10:14:23;6.30;;;4.97;;
19836;SDS011;10079;55.740;37.662;2022-07-10T10:17:07;5.37;;;4.87;;
19836;SDS011;10079;55.740;37.662;2022-07-10T10:19:49;5.35;;;4.32;;
19836;SDS011;10079;55.740;37.662;2022-07-10T10:22:30;5.55;;;4.55;;
19836;SDS011;10079;55.740;37.662;2022-07-10T10:25:20;5.05;;;4.55;;
19836;SDS011;10079;55.740;37.662;2022-07-10T10:28:05;5.05;;;4.57;;
19836;SDS011;10079;55.740;37.662;2022-07-10T10:30:46;6.47;;;4.15;;
19836;SDS011;10079;55.740;37.662;2022-07-10T10:33:45;4.20;;;3.80;;
19836;SDS011;10079;55.740;37.662;2022-07-10T10:39:28;4.40;;;4.00;;
19836;SDS011;10079;55.740;37.662;2022-07-10T10:42:22;5.12;;;3.92;;
19836;SDS011;10079;55.740;37.662;2022-07-10T10:44:51;4.60;;;4.22;;
19836;SDS011;10079;55.740;37.662;2022-07-10T10:47:56;5.15;;;4.00;;
19836;SDS011;10079;55.740;37.662;2022-07-10T10:53:22;4.78;;;3.62;;
19836;SDS011;10079;55.740;37.662;2022-07-10T10:56:20;6.18;;;3.80;;
19836;SDS011;10079;55.740;37.662;2022-07-10T10:59:02;9.32;;;3.33;;
19836;SDS011;10079;55.740;37.662;2022-07-10T11:01:43;5.82;;;3.10;;
19836;SDS011;10079;55.740;37.662;2022-07-10T11:04:25;3.80;;;3.50;;
19836;SDS011;10079;55.740;37.662;2022-07-10T11:13:24;3.60;;;3.30;;
19836;SDS011;10079;55.740;37.662;2022-07-10T11:16:11;3.78;;;3.08;;
19836;SDS011;10079;55.740;37.662;2022-07-10T11:18:51;5.40;;;3.40;;
19836;SDS011;10079;55.740;37.662;2022-07-10T11:21:42;4.90;;;3.12;;
19836;SDS011;10079;55.740;37.662;2022-07-10T11:24:37;8.10;;;5.03;;
19836;SDS011;10079;55.740;37.662;2022-07-10T11:27:19;4.47;;;3.58;;
19836;SDS011;10079;55.740;37.662;2022-07-10T11:30:23;4.80;;;3.30;;
19836;SDS011;10079;55.740;37.662;2022-07-10T11:33:04;4.22;;;3.20;;
19836;SDS011;10079;55.740;37.662;2022-07-10T11:35:45;3.83;;;3.20;;
19836;SDS011;10079;55.740;37.662;2022-07-10T11:38:28;3.55;;;3.25;;
19836;SDS011;10079;55.740;37.662;2022-07-10T11:41:18;5.07;;;3.60;;
19836;SDS011;10079;55.740;37.662;2022-07-10T11:44:01;4.85;;;3.65;;
19836;SDS011;10079;55.740;37.662;2022-07-10T11:46:42;4.00;;;3.47;;
19836;SDS011;10079;55.740;37.662;2022-07-10T11:49:27;4.57;;;3.75;;
19836;SDS011;10079;55.740;37.662;2022-07-10T11:52:08;3.72;;;3.40;;
19836;SDS011;10079;55.740;37.662;2022-07-10T11:54:49;3.90;;;3.47;;
19836;SDS011;10079;55.740;37.662;2022-07-10T11:57:37;4.30;;;3.67;;
19836;SDS011;10079;55.740;37.662;2022-07-10T12:03:15;3.65;;;3.45;;
19836;SDS011;10079;55.740;37.662;2022-07-10T12:05:42;4.18;;;3.80;;
19836;SDS011;10079;55.740;37.662;2022-07-10T12:08:29;3.92;;;3.60;;
19836;SDS011;10079;55.740;37.662;2022-07-10T12:11:11;4.82;;;3.87;;
19836;SDS011;10079;55.740;37.662;2022-07-10T12:14:23;4.18;;;3.78;;
19836;SDS011;10079;55.740;37.662;2022-07-10T12:17:10;4.05;;;3.60;;
19836;SDS011;10079;55.740;37.662;2022-07-10T12:20:00;4.80;;;3.70;;
19836;SDS011;10079;55.740;37.662;2022-07-10T12:22:41;4.68;;;3.90;;
19836;SDS011;10079;55.740;37.662;2022-07-10T12:30:10;3.90;;;3.60;;
19836;SDS011;10079;55.740;37.662;2022-07-10T12:32:52;4.72;;;3.72;;
19836;SDS011;10079;55.740;37.662;2022-07-10T12:38:53;5.03;;;3.45;;
19836;SDS011;10079;55.740;37.662;2022-07-10T12:44:32;7.03;;;3.80;;
19836;SDS011;10079;55.740;37.662;2022-07-10T12:47:18;4.22;;;3.60;;
19836;SDS011;10079;55.740;37.662;2022-07-10T12:50:02;4.53;;;3.65;;
19836;SDS011;10079;55.740;37.662;2022-07-10T12:52:47;9.13;;;3.50;;
19836;SDS011;10079;55.740;37.662;2022-07-10T12:55:40;4.18;;;3.87;;
19836;SDS011;10079;55.740;37.662;2022-07-10T12:58:21;5.55;;;3.83;;
19836;SDS011;10079;55.740;37.662;2022-07-10T13:01:11;4.05;;;3.65;;
19836;SDS011;10079;55.740;37.662;2022-07-10T13:04:04;4.82;;;3.50;;
19836;SDS011;10079;55.740;37.662;2022-07-10T13:06:45;4.93;;;3.25;;
19836;SDS011;10079;55.740;37.662;2022-07-10T13:09:34;7.65;;;3.83;;
19836;SDS011;10079;55.740;37.662;2022-07-10T13:12:19;4.32;;;3.92;;
19836;SDS011;10079;55.740;37.662;2022-07-10T13:15:02;4.60;;;3.50;;
19836;SDS011;10079;55.740;37.662;2022-07-10T13:17:46;4.93;;;3.80;;
19836;SDS011;10079;55.740;37.662;2022-07-10T13:20:30;4.57;;;3.87;;
19836;SDS011;10079;55.740;37.662;2022-07-10T13:23:15;5.15;;;4.10;;
19836;SDS011;10079;55.740;37.662;2022-07-10T13:26:08;5.10;;;4.25;;
19836;SDS011;10079;55.740;37.662;2022-07-10T13:28:49;5.30;;;4.25;;
19836;SDS011;10079;55.740;37.662;2022-07-10T13:31:30;5.32;;;3.92;;
19836;SDS011;10079;55.740;37.662;2022-07-10T13:34:11;4.68;;;3.70;;
19836;SDS011;10079;55.740;37.662;2022-07-10T13:37:01;7.00;;;3.65;;
19836;SDS011;10079;55.740;37.662;2022-07-10T13:39:42;5.20;;;4.07;;
19836;SDS011;10079;55.740;37.662;2022-07-10T13:52:59;4.15;;;3.75;;
19836;SDS011;10079;55.740;37.662;2022-07-10T13:55:41;7.07;;;3.83;;
19836;SDS011;10079;55.740;37.662;2022-07-10T13:58:34;5.80;;;3.25;;
19836;SDS011;10079;55.740;37.662;2022-07-10T14:01:15;4.87;;;3.72;;
19836;SDS011;10079;55.740;37.662;2022-07-10T14:03:56;6.60;;;3.83;;
19836;SDS011;10079;55.740;37.662;2022-07-10T14:06:48;4.62;;;3.50;;
19836;SDS011;10079;55.740;37.662;2022-07-10T14:09:30;7.30;;;3.95;;
19836;SDS011;10079;55.740;37.662;2022-07-10T14:12:11;4.90;;;3.70;;
19836;SDS011;10079;55.740;37.662;2022-07-10T14:14:56;8.93;;;3.62;;
19836;SDS011;10079;55.740;37.662;2022-07-10T14:17:36;4.37;;;3.97;;
19836;SDS011;10079;55.740;37.662;2022-07-10T14:20:18;6.47;;;3.90;;
19836;SDS011;10079;55.740;37.662;2022-07-10T14:22:59;4.97;;;4.40;;
19836;SDS011;10079;55.740;37.662;2022-07-10T14:36:14;8.88;;;3.78;;
19836;SDS011;10079;55.740;37.662;2022-07-10T14:38:58;23.95;;;4.18;;
19836;SDS011;10079;55.740;37.662;2022-07-10T14:41:39;23.70;;;4.22;;
19836;SDS011;10079;55.740;37.662;2022-07-10T14:44:33;14.63;;;3.28;;
19836;SDS011;10079;55.740;37.662;2022-07-10T14:47:14;4.32;;;2.58;;
19836;SDS011;10079;55.740;37.662;2022-07-10T14:49:55;5.23;;;2.83;;
19836;SDS011;10079;55.740;37.662;2022-07-10T14:52:36;4.70;;;2.93;;
19836;SDS011;10079;55.740;37.662;2022-07-10T14:55:17;6.03;;;2.83;;
19836;SDS011;10079;55.740;37.662;2022-07-10T14:57:59;6.90;;;2.97;;
19836;SDS011;10079;55.740;37.662;2022-07-10T15:00:40;4.97;;;3.13;;
19836;SDS011;10079;55.740;37.662;2022-07-10T15:03:24;5.03;;;3.73;;
19836;SDS011;10079;55.740;37.662;2022-07-10T15:06:05;8.37;;;4.13;;
19836;SDS011;10079;55.740;37.662;2022-07-10T15:08:46;6.33;;;4.03;;
19836;SDS011;10079;55.740;37.662;2022-07-10T15:11:31;8.03;;;4.10;;
19836;SDS011;10079;55.740;37.662;2022-07-10T15:14:11;8.90;;;4.63;;
19836;SDS011;10079;55.740;37.662;2022-07-10T15:16:52;6.87;;;4.63;;
19836;SDS011;10079;55.740;37.662;2022-07-10T15:19:34;7.63;;;5.10;;
19836;SDS011;10079;55.740;37.662;2022-07-10T15:22:23;9.03;;;5.77;;
19836;SDS011;10079;55.740;37.662;2022-07-10T15:25:04;8.80;;;6.00;;
19836;SDS011;10079;55.740;37.662;2022-07-10T15:27:46;8.07;;;5.40;;
19836;SDS011;10079;55.740;37.662;2022-07-10T15:30:27;9.20;;;5.80;;
19836;SDS011;10079;55.740;37.662;2022-07-10T15:33:16;8.20;;;5.93;;
19836;SDS011;10079;55.740;37.662;2022-07-10T15:36:00;7.23;;;5.90;;
19836;SDS011;10079;55.740;37.662;2022-07-10T15:38:44;9.07;;;6.07;;
19836;SDS011;10079;55.740;37.662;2022-07-10T15:41:29;11.50;;;6.17;;
19836;SDS011;10079;55.740;37.662;2022-07-10T15:45:16;10.03;;;6.43;;
19836;SDS011;10079;55.740;37.662;2022-07-10T15:48:00;11.90;;;7.47;;
19836;SDS011;10079;55.740;37.662;2022-07-10T15:50:53;9.67;;;6.60;;
19836;SDS011;10079;55.740;37.662;2022-07-10T15:53:34;15.30;;;8.53;;
19836;SDS011;10079;55.740;37.662;2022-07-10T15:56:18;9.03;;;6.33;;
19836;SDS011;10079;55.740;37.662;2022-07-10T15:59:02;8.90;;;5.83;;
19836;SDS011;10079;55.740;37.662;2022-07-10T16:01:55;7.40;;;5.80;;
19836;SDS011;10079;55.740;37.662;2022-07-10T16:04:37;7.17;;;4.93;;
19836;SDS011;10079;55.740;37.662;2022-07-10T16:07:29;7.07;;;4.93;;
19836;SDS011;10079;55.740;37.662;2022-07-10T16:10:22;9.70;;;5.00;;
19836;SDS011;10079;55.740;37.662;2022-07-10T16:13:06;6.40;;;5.03;;
19836;SDS011;10079;55.740;37.662;2022-07-10T16:15:50;6.23;;;4.80;;
19836;SDS011;10079;55.740;37.662;2022-07-10T16:18:43;7.50;;;5.03;;
19836;SDS011;10079;55.740;37.662;2022-07-10T16:21:36;11.40;;;6.03;;
19836;SDS011;10079;55.740;37.662;2022-07-10T16:24:40;6.73;;;5.17;;
19836;SDS011;10079;55.740;37.662;2022-07-10T16:30:22;6.10;;;5.07;;
19836;SDS011;10079;55.740;37.662;2022-07-10T16:33:03;9.20;;;5.23;;
19836;SDS011;10079;55.740;37.662;2022-07-10T16:35:47;11.50;;;7.83;;
19836;SDS011;10079;55.740;37.662;2022-07-10T16:38:31;12.97;;;7.57;;
19836;SDS011;10079;55.740;37.662;2022-07-10T16:41:25;5.50;;;4.80;;
19836;SDS011;10079;55.740;37.662;2022-07-10T16:44:09;9.27;;;5.67;;
19836;SDS011;10079;55.740;37.662;2022-07-10T16:47:02;7.10;;;4.90;;
19836;SDS011;10079;55.740;37.662;2022-07-10T16:49:52;9.43;;;5.67;;
19836;SDS011;10079;55.740;37.662;2022-07-10T16:52:33;9.10;;;5.87;;
19836;SDS011;10079;55.740;37.662;2022-07-10T16:55:35;11.07;;;6.37;;
19836;SDS011;10079;55.740;37.662;2022-07-10T16:58:16;10.00;;;6.00;;
19836;SDS011;10079;55.740;37.662;2022-07-10T17:00:57;10.97;;;6.70;;
19836;SDS011;10079;55.740;37.662;2022-07-10T17:03:41;9.63;;;6.47;;
19836;SDS011;10079;55.740;37.662;2022-07-10T17:06:22;8.53;;;6.27;;
19836;SDS011;10079;55.740;37.662;2022-07-10T17:09:04;10.87;;;6.77;;
19836;SDS011;10079;55.740;37.662;2022-07-10T17:11:45;10.10;;;6.40;;
19836;SDS011;10079;55.740;37.662;2022-07-10T17:14:38;12.30;;;7.63;;
19836;SDS011;10079;55.740;37.662;2022-07-10T17:17:19;16.13;;;8.50;;
19836;SDS011;10079;55.740;37.662;2022-07-10T17:20:00;8.83;;;6.03;;
19836;SDS011;10079;55.740;37.662;2022-07-10T17:22:41;8.03;;;5.40;;
19836;SDS011;10079;55.740;37.662;2022-07-10T17:25:25;9.83;;;6.10;;
19836;SDS011;10079;55.740;37.662;2022-07-10T17:28:09;9.67;;;5.93;;
19836;SDS011;10079;55.740;37.662;2022-07-10T17:30:50;9.30;;;6.50;;
19836;SDS011;10079;55.740;37.662;2022-07-10T17:33:34;7.70;;;5.67;;
19836;SDS011;10079;55.740;37.662;2022-07-10T17:36:16;7.93;;;6.07;;
19836;SDS011;10079;55.740;37.662;2022-07-10T17:38:57;7.63;;;5.40;;
19836;SDS011;10079;55.740;37.662;2022-07-10T17:41:38;7.53;;;5.40;;
19836;SDS011;10079;55.740;37.662;2022-07-10T17:44:18;10.70;;;5.50;;
19836;SDS011;10079;55.740;37.662;2022-07-10T17:47:03;8.27;;;4.93;;
19836;SDS011;10079;55.740;37.662;2022-07-10T17:49:47;7.20;;;5.13;;
19836;SDS011;10079;55.740;37.662;2022-07-10T17:52:28;8.43;;;5.37;;
19836;SDS011;10079;55.740;37.662;2022-07-10T17:55:21;6.20;;;4.83;;
19836;SDS011;10079;55.740;37.662;2022-07-10T17:58:02;7.37;;;5.17;;
19836;SDS011;10079;55.740;37.662;2022-07-10T18:00:43;7.67;;;5.33;;
19836;SDS011;10079;55.740;37.662;2022-07-10T18:03:25;7.63;;;5.80;;
19836;SDS011;10079;55.740;37.662;2022-07-10T18:06:06;10.37;;;5.17;;
19836;SDS011;10079;55.740;37.662;2022-07-10T18:08:47;7.43;;;5.17;;
19836;SDS011;10079;55.740;37.662;2022-07-10T18:11:28;6.70;;;5.20;;
19836;SDS011;10079;55.740;37.662;2022-07-10T18:14:12;5.37;;;4.10;;
19836;SDS011;10079;55.740;37.662;2022-07-10T18:16:57;6.23;;;4.70;;
19836;SDS011;10079;55.740;37.662;2022-07-10T18:19:37;5.93;;;5.00;;
19836;SDS011;10079;55.740;37.662;2022-07-10T18:22:19;8.03;;;5.20;;
19836;SDS011;10079;55.740;37.662;2022-07-10T18:25:00;6.87;;;4.70;;
19836;SDS011;10079;55.740;37.662;2022-07-10T18:27:40;7.67;;;4.90;;
19836;SDS011;10079;55.740;37.662;2022-07-10T18:30:25;7.03;;;4.80;;
19836;SDS011;10079;55.740;37.662;2022-07-10T18:33:05;5.50;;;4.83;;
19836;SDS011;10079;55.740;37.662;2022-07-10T18:35:47;6.53;;;4.63;;